PWSweather.com
Personal Weather Stations
Station Observations
UWIDEPER1
Brown County, Depere, WI 54115

Brown CountyDepere, WI 54115

Lat: 44.44, Lon: -88.05

Elevation: 610

Station Type: Acurite 5in1

www.depereweather.com

High Low Average
Temperature 39.3°F4.1°C 32.2°F0.1°C 36.4°F2.4°C
Dew Point 36.0°F2.2°C 27.6°F-2.4°C 32.7°F0.4°C
Winds 10.4 mph 16.7 kmh 1.2 mph 1.9 kmh 6.0 mph W9.7 kmh W
Wind Gusts 19.6 mph31.5 kmh -- 7.0 mph11.3 kmh
Humidity 96% 78% 87%
Pressure 29.82 in1009.8 mb 29.56 in1001.0 mb -
Precipitation 0.00 in0.0 mm - -
Hour Temp Dew Point Humidity Winds Wind Gusts Pressure Precip Precip Rate Daily Precip Total
12:00 AM 37.0°F2.8°C 36.0°F2.2°C 96% 2.3 mph WSW3.7 kmh WSW 3.5 mph5.6 kmh 29.60 in1002.4 mb - 0.00 in0.0 mm 0.00 in0.0 mm
12:10 AM 37.0°F2.8°C 36.0°F2.2°C 96% 2.3 mph WNW3.7 kmh WNW 1.2 mph1.9 kmh 29.59 in1002.0 mb - 0.00 in0.0 mm 0.00 in0.0 mm
12:15 AM 37.0°F2.8°C 36.0°F2.2°C 96% 1.2 mph W1.9 kmh W 3.5 mph5.6 kmh 29.59 in1002.0 mb - 0.00 in0.0 mm 0.00 in0.0 mm
12:20 AM 37.0°F2.8°C 36.0°F2.2°C 96% 2.3 mph W3.7 kmh W 2.3 mph3.7 kmh 29.60 in1002.4 mb - 0.00 in0.0 mm 0.00 in0.0 mm
12:25 AM 37.0°F2.8°C 36.0°F2.2°C 96% 2.3 mph WNW3.7 kmh WNW 3.5 mph5.6 kmh 29.60 in1002.4 mb - 0.00 in0.0 mm 0.00 in0.0 mm
12:30 AM 37.0°F2.8°C 36.0°F2.2°C 96% 2.3 mph WSW3.7 kmh WSW 3.5 mph5.6 kmh 29.60 in1002.4 mb - 0.00 in0.0 mm 0.00 in0.0 mm
12:35 AM 37.0°F2.8°C 36.0°F2.2°C 96% 2.3 mph SW3.7 kmh SW -- 29.61 in1002.7 mb - 0.00 in0.0 mm 0.00 in0.0 mm
12:40 AM 36.9°F2.7°C 35.8°F2.1°C 96% 2.3 mph W3.7 kmh W 2.3 mph3.7 kmh 29.60 in1002.4 mb - 0.00 in0.0 mm 0.00 in0.0 mm
12:45 AM 36.9°F2.7°C 35.8°F2.1°C 96% 2.3 mph NW3.7 kmh NW 4.6 mph7.4 kmh 29.59 in1002.0 mb - 0.00 in0.0 mm 0.00 in0.0 mm
12:50 AM 36.9°F2.7°C 35.8°F2.1°C 96% 3.5 mph WNW5.6 kmh WNW 2.3 mph3.7 kmh 29.59 in1002.0 mb - 0.00 in0.0 mm 0.00 in0.0 mm
12:55 AM 36.9°F2.7°C 35.8°F2.1°C 96% 2.3 mph W3.7 kmh W 3.5 mph5.6 kmh 29.59 in1002.0 mb - 0.00 in0.0 mm 0.00 in0.0 mm
01:00 AM 36.7°F2.6°C 35.6°F2.0°C 96% 3.5 mph NNW5.6 kmh NNW 3.5 mph5.6 kmh 29.58 in1001.7 mb - 0.00 in0.0 mm 0.00 in0.0 mm
01:10 AM 36.5°F2.5°C 35.5°F1.9°C 96% 3.5 mph W5.6 kmh W 3.5 mph5.6 kmh 29.58 in1001.7 mb - 0.00 in0.0 mm 0.00 in0.0 mm
01:15 AM 36.5°F2.5°C 35.5°F1.9°C 96% 2.3 mph N3.7 kmh N 3.5 mph5.6 kmh 29.56 in1001.0 mb - 0.00 in0.0 mm 0.00 in0.0 mm
01:20 AM 36.1°F2.3°C 35.1°F1.7°C 96% 3.5 mph WNW5.6 kmh WNW 5.8 mph9.3 kmh 29.56 in1001.0 mb - 0.00 in0.0 mm 0.00 in0.0 mm
01:25 AM 36.1°F2.3°C 34.8°F1.6°C 95% 4.6 mph NW7.4 kmh NW 4.6 mph7.4 kmh 29.57 in1001.4 mb - 0.00 in0.0 mm 0.00 in0.0 mm
01:30 AM 36.1°F2.3°C 34.8°F1.6°C 95% 3.5 mph NE5.6 kmh NE 2.3 mph3.7 kmh 29.57 in1001.4 mb - 0.00 in0.0 mm 0.00 in0.0 mm
01:35 AM 36.0°F2.2°C 34.7°F1.5°C 95% 2.3 mph N3.7 kmh N 3.5 mph5.6 kmh 29.56 in1001.0 mb - 0.00 in0.0 mm 0.00 in0.0 mm
01:40 AM 36.0°F2.2°C 34.7°F1.5°C 95% 2.3 mph NW3.7 kmh NW 4.6 mph7.4 kmh 29.57 in1001.4 mb - 0.00 in0.0 mm 0.00 in0.0 mm
01:45 AM 35.8°F2.1°C 34.5°F1.4°C 95% 3.5 mph NW5.6 kmh NW 3.5 mph5.6 kmh 29.57 in1001.4 mb - 0.00 in0.0 mm 0.00 in0.0 mm
01:50 AM 35.8°F2.1°C 34.5°F1.4°C 95% 2.3 mph WNW3.7 kmh WNW 4.6 mph7.4 kmh 29.58 in1001.7 mb - 0.00 in0.0 mm 0.00 in0.0 mm
01:55 AM 35.8°F2.1°C 34.5°F1.4°C 95% 3.5 mph NNW5.6 kmh NNW 3.5 mph5.6 kmh 29.58 in1001.7 mb - 0.00 in0.0 mm 0.00 in0.0 mm
02:00 AM 35.4°F1.9°C 34.1°F1.2°C 95% 2.3 mph NE3.7 kmh NE 2.3 mph3.7 kmh 29.57 in1001.4 mb - 0.00 in0.0 mm 0.00 in0.0 mm
02:10 AM 35.4°F1.9°C 34.1°F1.2°C 95% 2.3 mph N3.7 kmh N 3.5 mph5.6 kmh 29.58 in1001.7 mb - 0.00 in0.0 mm 0.00 in0.0 mm
02:15 AM 35.4°F1.9°C 34.1°F1.2°C 95% 1.2 mph NNW1.9 kmh NNW 2.3 mph3.7 kmh 29.60 in1002.4 mb - 0.00 in0.0 mm 0.00 in0.0 mm
02:20 AM 35.4°F1.9°C 34.1°F1.2°C 95% 2.3 mph W3.7 kmh W 3.5 mph5.6 kmh 29.59 in1002.0 mb - 0.00 in0.0 mm 0.00 in0.0 mm
02:25 AM 35.4°F1.9°C 34.1°F1.2°C 95% 1.2 mph NW1.9 kmh NW 3.5 mph5.6 kmh 29.60 in1002.4 mb - 0.00 in0.0 mm 0.00 in0.0 mm
02:30 AM 35.4°F1.9°C 34.1°F1.2°C 95% 1.2 mph W1.9 kmh W 2.3 mph3.7 kmh 29.60 in1002.4 mb - 0.00 in0.0 mm 0.00 in0.0 mm
02:35 AM 35.4°F1.9°C 34.1°F1.2°C 95% 2.3 mph NW3.7 kmh NW 3.5 mph5.6 kmh 29.61 in1002.7 mb - 0.00 in0.0 mm 0.00 in0.0 mm
02:40 AM 35.8°F2.1°C 34.0°F1.1°C 93% 3.5 mph W5.6 kmh W 3.5 mph5.6 kmh 29.61 in1002.7 mb - 0.00 in0.0 mm 0.00 in0.0 mm
02:45 AM 35.8°F2.1°C 34.0°F1.1°C 93% 2.3 mph WNW3.7 kmh WNW 3.5 mph5.6 kmh 29.61 in1002.7 mb - 0.00 in0.0 mm 0.00 in0.0 mm
02:50 AM 35.8°F2.1°C 34.0°F1.1°C 93% 1.2 mph WSW1.9 kmh WSW 2.3 mph3.7 kmh 29.60 in1002.4 mb - 0.00 in0.0 mm 0.00 in0.0 mm
02:55 AM 35.8°F2.1°C 34.0°F1.1°C 93% 1.2 mph NW1.9 kmh NW 2.3 mph3.7 kmh 29.60 in1002.4 mb - 0.00 in0.0 mm 0.00 in0.0 mm
03:00 AM 35.8°F2.1°C 34.0°F1.1°C 93% 2.3 mph NW3.7 kmh NW 3.5 mph5.6 kmh 29.60 in1002.4 mb - 0.00 in0.0 mm 0.00 in0.0 mm
03:10 AM 35.8°F2.1°C 34.0°F1.1°C 93% 2.3 mph WNW3.7 kmh WNW 3.5 mph5.6 kmh 29.60 in1002.4 mb - 0.00 in0.0 mm 0.00 in0.0 mm
03:15 AM 35.8°F2.1°C 34.0°F1.1°C 93% 3.5 mph NW5.6 kmh NW 4.6 mph7.4 kmh 29.60 in1002.4 mb - 0.00 in0.0 mm 0.00 in0.0 mm
03:20 AM 35.8°F2.1°C 34.0°F1.1°C 93% 3.5 mph N5.6 kmh N 3.5 mph5.6 kmh 29.59 in1002.0 mb - 0.00 in0.0 mm 0.00 in0.0 mm
03:25 AM 35.8°F2.1°C 34.0°F1.1°C 93% 2.3 mph WNW3.7 kmh WNW 3.5 mph5.6 kmh 29.60 in1002.4 mb - 0.00 in0.0 mm 0.00 in0.0 mm
03:30 AM 35.8°F2.1°C 34.0°F1.1°C 93% 2.3 mph NNW3.7 kmh NNW 2.3 mph3.7 kmh 29.61 in1002.7 mb - 0.00 in0.0 mm 0.00 in0.0 mm
03:35 AM 35.8°F2.1°C 34.0°F1.1°C 93% 2.3 mph W3.7 kmh W 3.5 mph5.6 kmh 29.61 in1002.7 mb - 0.00 in0.0 mm 0.00 in0.0 mm
03:40 AM 35.8°F2.1°C 34.0°F1.1°C 93% 2.3 mph N3.7 kmh N 3.5 mph5.6 kmh 29.62 in1003.0 mb - 0.00 in0.0 mm 0.00 in0.0 mm
03:45 AM 35.8°F2.1°C 34.0°F1.1°C 93% 2.3 mph N3.7 kmh N 3.5 mph5.6 kmh 29.61 in1002.7 mb - 0.00 in0.0 mm 0.00 in0.0 mm
03:50 AM 35.8°F2.1°C 34.0°F1.1°C 93% 3.5 mph NW5.6 kmh NW 3.5 mph5.6 kmh 29.60 in1002.4 mb - 0.00 in0.0 mm 0.00 in0.0 mm
03:55 AM 35.8°F2.1°C 34.0°F1.1°C 93% 3.5 mph NW5.6 kmh NW 4.6 mph7.4 kmh 29.61 in1002.7 mb - 0.00 in0.0 mm 0.00 in0.0 mm
04:00 AM 35.8°F2.1°C 34.0°F1.1°C 93% 3.5 mph N5.6 kmh N 3.5 mph5.6 kmh 29.61 in1002.7 mb - 0.00 in0.0 mm 0.00 in0.0 mm
04:10 AM 35.8°F2.1°C 34.0°F1.1°C 93% 2.3 mph NNW3.7 kmh NNW 2.3 mph3.7 kmh 29.62 in1003.0 mb - 0.00 in0.0 mm 0.00 in0.0 mm
04:15 AM 35.8°F2.1°C 34.0°F1.1°C 93% 4.6 mph ENE7.4 kmh ENE 6.9 mph11.1 kmh 29.62 in1003.0 mb - 0.00 in0.0 mm 0.00 in0.0 mm
04:20 AM 35.8°F2.1°C 34.0°F1.1°C 93% 3.5 mph NW5.6 kmh NW 3.5 mph5.6 kmh 29.62 in1003.0 mb - 0.00 in0.0 mm 0.00 in0.0 mm
04:25 AM 35.8°F2.1°C 34.0°F1.1°C 93% 2.3 mph N3.7 kmh N 1.2 mph1.9 kmh 29.62 in1003.0 mb - 0.00 in0.0 mm 0.00 in0.0 mm
04:30 AM 35.8°F2.1°C 34.0°F1.1°C 93% 2.3 mph WNW3.7 kmh WNW 3.5 mph5.6 kmh 29.61 in1002.7 mb - 0.00 in0.0 mm 0.00 in0.0 mm
04:35 AM 35.8°F2.1°C 34.0°F1.1°C 93% 3.5 mph NNW5.6 kmh NNW 5.8 mph9.3 kmh 29.61 in1002.7 mb - 0.00 in0.0 mm 0.00 in0.0 mm
04:40 AM 35.8°F2.1°C 34.0°F1.1°C 93% 4.6 mph NNW7.4 kmh NNW 6.9 mph11.1 kmh 29.61 in1002.7 mb - 0.00 in0.0 mm 0.00 in0.0 mm
04:45 AM 35.7°F2.1°C 33.9°F1.1°C 93% 3.5 mph N5.6 kmh N 3.5 mph5.6 kmh 29.60 in1002.4 mb - 0.00 in0.0 mm 0.00 in0.0 mm
04:50 AM 35.4°F1.9°C 33.6°F0.9°C 93% 3.5 mph NNE5.6 kmh NNE 3.5 mph5.6 kmh 29.59 in1002.0 mb - 0.00 in0.0 mm 0.00 in0.0 mm
04:55 AM 35.4°F1.9°C 33.6°F0.9°C 93% 4.6 mph N7.4 kmh N 8.1 mph13.0 kmh 29.58 in1001.7 mb - 0.00 in0.0 mm 0.00 in0.0 mm
05:00 AM 35.4°F1.9°C 33.6°F0.9°C 93% 4.6 mph NW7.4 kmh NW 3.5 mph5.6 kmh 29.59 in1002.0 mb - 0.00 in0.0 mm 0.00 in0.0 mm
05:10 AM 35.4°F1.9°C 33.6°F0.9°C 93% 4.6 mph NNW7.4 kmh NNW 5.8 mph9.3 kmh 29.60 in1002.4 mb - 0.00 in0.0 mm 0.00 in0.0 mm
05:15 AM 35.4°F1.9°C 33.6°F0.9°C 93% 5.8 mph N9.3 kmh N 4.6 mph7.4 kmh 29.61 in1002.7 mb - 0.00 in0.0 mm 0.00 in0.0 mm
05:20 AM 35.4°F1.9°C 33.6°F0.9°C 93% 3.5 mph N5.6 kmh N 3.5 mph5.6 kmh 29.60 in1002.4 mb - 0.00 in0.0 mm 0.00 in0.0 mm
05:25 AM 35.4°F1.9°C 33.6°F0.9°C 93% 3.5 mph N5.6 kmh N 3.5 mph5.6 kmh 29.60 in1002.4 mb - 0.00 in0.0 mm 0.00 in0.0 mm
05:30 AM 35.4°F1.9°C 33.6°F0.9°C 93% 5.8 mph N9.3 kmh N 6.9 mph11.1 kmh 29.59 in1002.0 mb - 0.00 in0.0 mm 0.00 in0.0 mm
05:35 AM 35.4°F1.9°C 33.6°F0.9°C 93% 4.6 mph NW7.4 kmh NW 5.8 mph9.3 kmh 29.60 in1002.4 mb - 0.00 in0.0 mm 0.00 in0.0 mm
05:40 AM 35.4°F1.9°C 33.6°F0.9°C 93% 4.6 mph N7.4 kmh N 8.1 mph13.0 kmh 29.60 in1002.4 mb - 0.00 in0.0 mm 0.00 in0.0 mm
05:45 AM 35.4°F1.9°C 33.6°F0.9°C 93% 5.8 mph N9.3 kmh N 8.1 mph13.0 kmh 29.59 in1002.0 mb - 0.00 in0.0 mm 0.00 in0.0 mm
05:50 AM 35.4°F1.9°C 33.6°F0.9°C 93% 5.8 mph N9.3 kmh N 8.1 mph13.0 kmh 29.59 in1002.0 mb - 0.00 in0.0 mm 0.00 in0.0 mm
05:55 AM 35.4°F1.9°C 33.6°F0.9°C 93% 6.9 mph WNW11.1 kmh WNW 4.6 mph7.4 kmh 29.59 in1002.0 mb - 0.00 in0.0 mm 0.00 in0.0 mm
06:00 AM 35.4°F1.9°C 33.6°F0.9°C 93% 4.6 mph WNW7.4 kmh WNW 5.8 mph9.3 kmh 29.60 in1002.4 mb - 0.00 in0.0 mm 0.00 in0.0 mm
06:10 AM 35.4°F1.9°C 33.6°F0.9°C 93% 4.6 mph NW7.4 kmh NW 6.9 mph11.1 kmh 29.61 in1002.7 mb - 0.00 in0.0 mm 0.00 in0.0 mm
06:15 AM 35.4°F1.9°C 33.6°F0.9°C 93% 4.6 mph NNW7.4 kmh NNW 6.9 mph11.1 kmh 29.60 in1002.4 mb - 0.00 in0.0 mm 0.00 in0.0 mm
06:20 AM 35.4°F1.9°C 33.6°F0.9°C 93% 4.6 mph NNE7.4 kmh NNE 3.5 mph5.6 kmh 29.61 in1002.7 mb - 0.00 in0.0 mm 0.00 in0.0 mm
06:25 AM 35.4°F1.9°C 33.6°F0.9°C 93% 3.5 mph N5.6 kmh N 3.5 mph5.6 kmh 29.61 in1002.7 mb - 0.00 in0.0 mm 0.00 in0.0 mm
06:30 AM 35.4°F1.9°C 33.6°F0.9°C 93% 4.6 mph NW7.4 kmh NW 9.2 mph14.8 kmh 29.61 in1002.7 mb - 0.00 in0.0 mm 0.00 in0.0 mm
06:35 AM 35.4°F1.9°C 33.6°F0.9°C 93% 6.9 mph NE11.1 kmh NE 4.6 mph7.4 kmh 29.60 in1002.4 mb - 0.00 in0.0 mm 0.00 in0.0 mm
06:40 AM 35.8°F2.1°C 34.0°F1.1°C 93% 4.6 mph NW7.4 kmh NW 3.5 mph5.6 kmh 29.61 in1002.7 mb - 0.00 in0.0 mm 0.00 in0.0 mm
06:45 AM 35.8°F2.1°C 34.0°F1.1°C 93% 4.6 mph NNW7.4 kmh NNW 8.1 mph13.0 kmh 29.60 in1002.4 mb - 0.00 in0.0 mm 0.00 in0.0 mm
06:50 AM 35.8°F2.1°C 34.0°F1.1°C 93% 4.6 mph NE7.4 kmh NE 9.2 mph14.8 kmh 29.61 in1002.7 mb - 0.00 in0.0 mm 0.00 in0.0 mm
06:55 AM 35.8°F2.1°C 33.4°F0.8°C 91% 5.8 mph N9.3 kmh N 4.6 mph7.4 kmh 29.61 in1002.7 mb - 0.00 in0.0 mm 0.00 in0.0 mm
07:00 AM 36.0°F2.2°C 33.6°F0.9°C 91% 4.6 mph NW7.4 kmh NW 8.1 mph13.0 kmh 29.61 in1002.7 mb - 0.00 in0.0 mm 0.00 in0.0 mm
07:10 AM 36.0°F2.2°C 33.6°F0.9°C 91% 8.1 mph NW13.0 kmh NW 9.2 mph14.8 kmh 29.61 in1002.7 mb - 0.00 in0.0 mm 0.00 in0.0 mm
07:15 AM 36.1°F2.3°C 33.8°F1.0°C 91% 5.8 mph NE9.3 kmh NE 3.5 mph5.6 kmh 29.61 in1002.7 mb - 0.00 in0.0 mm 0.00 in0.0 mm
07:20 AM 36.1°F2.3°C 33.8°F1.0°C 91% 3.5 mph NW5.6 kmh NW 4.6 mph7.4 kmh 29.61 in1002.7 mb - 0.00 in0.0 mm 0.00 in0.0 mm
07:25 AM 36.1°F2.3°C 33.8°F1.0°C 91% 3.5 mph NNW5.6 kmh NNW 4.6 mph7.4 kmh 29.61 in1002.7 mb - 0.00 in0.0 mm 0.00 in0.0 mm
07:30 AM 36.1°F2.3°C 33.8°F1.0°C 91% 4.6 mph NNW7.4 kmh NNW 5.8 mph9.3 kmh 29.61 in1002.7 mb - 0.00 in0.0 mm 0.00 in0.0 mm
07:35 AM 36.1°F2.3°C 33.8°F1.0°C 91% 4.6 mph W7.4 kmh W 5.8 mph9.3 kmh 29.61 in1002.7 mb - 0.00 in0.0 mm 0.00 in0.0 mm
07:40 AM 36.1°F2.3°C 33.8°F1.0°C 91% 4.6 mph NW7.4 kmh NW 5.8 mph9.3 kmh 29.61 in1002.7 mb - 0.00 in0.0 mm 0.00 in0.0 mm
07:45 AM 36.1°F2.3°C 33.8°F1.0°C 91% 4.6 mph NW7.4 kmh NW 8.1 mph13.0 kmh 29.62 in1003.0 mb - 0.00 in0.0 mm 0.00 in0.0 mm
07:50 AM 36.1°F2.3°C 33.8°F1.0°C 91% 3.5 mph N5.6 kmh N 4.6 mph7.4 kmh 29.62 in1003.0 mb - 0.00 in0.0 mm 0.00 in0.0 mm
07:55 AM 36.1°F2.3°C 33.8°F1.0°C 91% 3.5 mph WNW5.6 kmh WNW 4.6 mph7.4 kmh 29.63 in1003.4 mb - 0.00 in0.0 mm 0.00 in0.0 mm
08:00 AM 36.5°F2.5°C 34.1°F1.2°C 91% 4.6 mph NW7.4 kmh NW 5.8 mph9.3 kmh 29.63 in1003.4 mb - 0.00 in0.0 mm 0.00 in0.0 mm
08:10 AM 36.5°F2.5°C 34.1°F1.2°C 91% 2.3 mph NW3.7 kmh NW 4.6 mph7.4 kmh 29.63 in1003.4 mb - 0.00 in0.0 mm 0.00 in0.0 mm
08:15 AM 36.5°F2.5°C 34.1°F1.2°C 91% 3.5 mph N5.6 kmh N 3.5 mph5.6 kmh 29.63 in1003.4 mb - 0.00 in0.0 mm 0.00 in0.0 mm
08:20 AM 36.5°F2.5°C 34.1°F1.2°C 91% 4.6 mph NNW7.4 kmh NNW 8.1 mph13.0 kmh 29.63 in1003.4 mb - 0.00 in0.0 mm 0.00 in0.0 mm
08:25 AM 36.5°F2.5°C 34.1°F1.2°C 91% 4.6 mph NNW7.4 kmh NNW 6.9 mph11.1 kmh 29.63 in1003.4 mb - 0.00 in0.0 mm 0.00 in0.0 mm
08:30 AM 36.7°F2.6°C 34.3°F1.3°C 91% 5.8 mph N9.3 kmh N 3.5 mph5.6 kmh 29.63 in1003.4 mb - 0.00 in0.0 mm 0.00 in0.0 mm
08:35 AM 36.7°F2.6°C 34.3°F1.3°C 91% 4.6 mph NW7.4 kmh NW 5.8 mph9.3 kmh 29.63 in1003.4 mb - 0.00 in0.0 mm 0.00 in0.0 mm
08:40 AM 36.7°F2.6°C 34.3°F1.3°C 91% 4.6 mph NW7.4 kmh NW 6.9 mph11.1 kmh 29.63 in1003.4 mb - 0.00 in0.0 mm 0.00 in0.0 mm
08:45 AM 36.9°F2.7°C 34.5°F1.4°C 91% 5.8 mph NW9.3 kmh NW 8.1 mph13.0 kmh 29.63 in1003.4 mb - 0.00 in0.0 mm 0.00 in0.0 mm
08:50 AM 36.9°F2.7°C 34.5°F1.4°C 91% 4.6 mph NE7.4 kmh NE 8.1 mph13.0 kmh 29.63 in1003.4 mb - 0.00 in0.0 mm 0.00 in0.0 mm
08:55 AM 37.0°F2.8°C 34.6°F1.4°C 91% 5.8 mph NNE9.3 kmh NNE 8.1 mph13.0 kmh 29.62 in1003.0 mb - 0.00 in0.0 mm 0.00 in0.0 mm
09:00 AM 37.0°F2.8°C 34.7°F1.5°C 91% 5.8 mph NW9.3 kmh NW 8.1 mph13.0 kmh 29.62 in1003.0 mb - 0.00 in0.0 mm 0.00 in0.0 mm
09:10 AM 37.2°F2.9°C 34.8°F1.6°C 91% 4.6 mph N7.4 kmh N 8.1 mph13.0 kmh 29.61 in1002.7 mb - 0.00 in0.0 mm 0.00 in0.0 mm
09:15 AM 37.4°F3.0°C 35.0°F1.7°C 91% 4.6 mph ENE7.4 kmh ENE 5.8 mph9.3 kmh 29.61 in1002.7 mb - 0.00 in0.0 mm 0.00 in0.0 mm
09:20 AM 37.4°F3.0°C 35.0°F1.7°C 91% 6.9 mph NW11.1 kmh NW 9.2 mph14.8 kmh 29.62 in1003.0 mb - 0.00 in0.0 mm 0.00 in0.0 mm
09:25 AM 37.4°F3.0°C 35.0°F1.7°C 91% 6.9 mph WNW11.1 kmh WNW 10.4 mph16.7 kmh 29.62 in1003.0 mb - 0.00 in0.0 mm 0.00 in0.0 mm
09:30 AM 37.4°F3.0°C 35.0°F1.7°C 91% 5.8 mph NW9.3 kmh NW 9.2 mph14.8 kmh 29.62 in1003.0 mb - 0.00 in0.0 mm 0.00 in0.0 mm
09:35 AM 37.6°F3.1°C 35.2°F1.8°C 91% 5.8 mph NNW9.3 kmh NNW 4.6 mph7.4 kmh 29.61 in1002.7 mb - 0.00 in0.0 mm 0.00 in0.0 mm
09:40 AM 37.6°F3.1°C 34.9°F1.6°C 90% 5.8 mph NW9.3 kmh NW 10.4 mph16.7 kmh 29.61 in1002.7 mb - 0.00 in0.0 mm 0.00 in0.0 mm
09:45 AM 37.8°F3.2°C 35.1°F1.7°C 90% 4.6 mph WNW7.4 kmh WNW 3.5 mph5.6 kmh 29.60 in1002.4 mb - 0.00 in0.0 mm 0.00 in0.0 mm
09:50 AM 37.8°F3.2°C 35.1°F1.7°C 90% 5.8 mph NW9.3 kmh NW 6.9 mph11.1 kmh 29.61 in1002.7 mb - 0.00 in0.0 mm 0.00 in0.0 mm
09:55 AM 37.8°F3.2°C 35.1°F1.7°C 90% 5.8 mph N9.3 kmh N 6.9 mph11.1 kmh 29.60 in1002.4 mb - 0.00 in0.0 mm 0.00 in0.0 mm
10:00 AM 37.8°F3.2°C 35.1°F1.7°C 90% 4.6 mph NNE7.4 kmh NNE 9.2 mph14.8 kmh 29.60 in1002.4 mb - 0.00 in0.0 mm 0.00 in0.0 mm
10:10 AM 37.9°F3.3°C 34.7°F1.5°C 88% 4.6 mph N7.4 kmh N 4.6 mph7.4 kmh 29.62 in1003.0 mb - 0.00 in0.0 mm 0.00 in0.0 mm
10:15 AM 38.1°F3.4°C 34.9°F1.6°C 88% 5.8 mph NNW9.3 kmh NNW 8.1 mph13.0 kmh 29.63 in1003.4 mb - 0.00 in0.0 mm 0.00 in0.0 mm
10:20 AM 38.1°F3.4°C 34.9°F1.6°C 88% 5.8 mph WNW9.3 kmh WNW 11.5 mph18.5 kmh 29.62 in1003.0 mb - 0.00 in0.0 mm 0.00 in0.0 mm
10:25 AM 38.5°F3.6°C 35.2°F1.8°C 88% 6.9 mph NW11.1 kmh NW 10.4 mph16.7 kmh 29.63 in1003.4 mb - 0.00 in0.0 mm 0.00 in0.0 mm
10:30 AM 38.5°F3.6°C 35.2°F1.8°C 88% 5.8 mph NW9.3 kmh NW 5.8 mph9.3 kmh 29.62 in1003.0 mb - 0.00 in0.0 mm 0.00 in0.0 mm
10:35 AM 38.5°F3.6°C 35.2°F1.8°C 88% 4.6 mph NNW7.4 kmh NNW 6.9 mph11.1 kmh 29.62 in1003.0 mb - 0.00 in0.0 mm 0.00 in0.0 mm
10:40 AM 38.5°F3.6°C 35.2°F1.8°C 88% 4.6 mph NW7.4 kmh NW 5.8 mph9.3 kmh 29.62 in1003.0 mb - 0.00 in0.0 mm 0.00 in0.0 mm
10:45 AM 38.5°F3.6°C 35.2°F1.8°C 88% 5.8 mph NW9.3 kmh NW 12.7 mph20.4 kmh 29.62 in1003.0 mb - 0.00 in0.0 mm 0.00 in0.0 mm
10:50 AM 38.1°F3.4°C 34.9°F1.6°C 88% 5.8 mph NNE9.3 kmh NNE 6.9 mph11.1 kmh 29.62 in1003.0 mb - 0.00 in0.0 mm 0.00 in0.0 mm
10:55 AM 38.5°F3.6°C 35.2°F1.8°C 88% 5.8 mph NW9.3 kmh NW 6.9 mph11.1 kmh 29.62 in1003.0 mb - 0.00 in0.0 mm 0.00 in0.0 mm
11:00 AM 38.5°F3.6°C 35.2°F1.8°C 88% 6.9 mph NNW11.1 kmh NNW 6.9 mph11.1 kmh 29.61 in1002.7 mb - 0.00 in0.0 mm 0.00 in0.0 mm
11:10 AM 38.7°F3.7°C 35.4°F1.9°C 88% 4.6 mph N7.4 kmh N 5.8 mph9.3 kmh 29.61 in1002.7 mb - 0.00 in0.0 mm 0.00 in0.0 mm
11:15 AM 38.7°F3.7°C 35.4°F1.9°C 88% 5.8 mph NNW9.3 kmh NNW 8.1 mph13.0 kmh 29.61 in1002.7 mb - 0.00 in0.0 mm 0.00 in0.0 mm
11:20 AM 38.7°F3.7°C 35.4°F1.9°C 88% 4.6 mph NW7.4 kmh NW 8.1 mph13.0 kmh 29.61 in1002.7 mb - 0.00 in0.0 mm 0.00 in0.0 mm
11:25 AM 38.7°F3.7°C 34.8°F1.6°C 86% 5.8 mph WNW9.3 kmh WNW 4.6 mph7.4 kmh 29.61 in1002.7 mb - 0.00 in0.0 mm 0.00 in0.0 mm
11:30 AM 38.7°F3.7°C 34.8°F1.6°C 86% 5.8 mph WNW9.3 kmh WNW 10.4 mph16.7 kmh 29.61 in1002.7 mb - 0.00 in0.0 mm 0.00 in0.0 mm
11:35 AM 38.7°F3.7°C 34.8°F1.6°C 86% 6.9 mph NNE11.1 kmh NNE 8.1 mph13.0 kmh 29.61 in1002.7 mb - 0.00 in0.0 mm 0.00 in0.0 mm
11:40 AM 38.7°F3.7°C 34.8°F1.6°C 86% 5.8 mph NW9.3 kmh NW 4.6 mph7.4 kmh 29.61 in1002.7 mb - 0.00 in0.0 mm 0.00 in0.0 mm
11:45 AM 38.7°F3.7°C 34.8°F1.6°C 86% 5.8 mph W9.3 kmh W 5.8 mph9.3 kmh 29.61 in1002.7 mb - 0.00 in0.0 mm 0.00 in0.0 mm
11:50 AM 38.7°F3.7°C 34.8°F1.6°C 86% 6.9 mph NW11.1 kmh NW 5.8 mph9.3 kmh 29.61 in1002.7 mb - 0.00 in0.0 mm 0.00 in0.0 mm
11:55 AM 38.7°F3.7°C 34.8°F1.6°C 86% 6.9 mph NNW11.1 kmh NNW 9.2 mph14.8 kmh 29.62 in1003.0 mb - 0.00 in0.0 mm 0.00 in0.0 mm
12:00 PM 38.7°F3.7°C 34.8°F1.6°C 86% 6.9 mph NW11.1 kmh NW 9.2 mph14.8 kmh 29.61 in1002.7 mb - 0.00 in0.0 mm 0.00 in0.0 mm
12:10 PM 38.7°F3.7°C 34.8°F1.6°C 86% 8.1 mph W13.0 kmh W 8.1 mph13.0 kmh 29.62 in1003.0 mb - 0.00 in0.0 mm 0.00 in0.0 mm
12:15 PM 38.7°F3.7°C 34.8°F1.6°C 86% 8.1 mph NW13.0 kmh NW 8.1 mph13.0 kmh 29.62 in1003.0 mb - 0.00 in0.0 mm 0.00 in0.0 mm
12:20 PM 38.7°F3.7°C 34.8°F1.6°C 86% 6.9 mph N11.1 kmh N 4.6 mph7.4 kmh 29.62 in1003.0 mb - 0.00 in0.0 mm 0.00 in0.0 mm
12:25 PM 38.7°F3.7°C 34.5°F1.4°C 85% 8.1 mph WNW13.0 kmh WNW 15.0 mph24.1 kmh 29.61 in1002.7 mb - 0.00 in0.0 mm 0.00 in0.0 mm
12:30 PM 38.7°F3.7°C 34.5°F1.4°C 85% 8.1 mph NNW13.0 kmh NNW 11.5 mph18.5 kmh 29.61 in1002.7 mb - 0.00 in0.0 mm 0.00 in0.0 mm
12:35 PM 38.7°F3.7°C 34.5°F1.4°C 85% 8.1 mph N13.0 kmh N 11.5 mph18.5 kmh 29.62 in1003.0 mb - 0.00 in0.0 mm 0.00 in0.0 mm
12:40 PM 38.7°F3.7°C 33.9°F1.1°C 83% 6.9 mph WNW11.1 kmh WNW 10.4 mph16.7 kmh 29.62 in1003.0 mb - 0.00 in0.0 mm 0.00 in0.0 mm
12:45 PM 39.0°F3.9°C 34.3°F1.3°C 83% 8.1 mph W13.0 kmh W 11.5 mph18.5 kmh 29.62 in1003.0 mb - 0.00 in0.0 mm 0.00 in0.0 mm
12:50 PM 39.0°F3.9°C 34.3°F1.3°C 83% 8.1 mph NW13.0 kmh NW 9.2 mph14.8 kmh 29.62 in1003.0 mb - 0.00 in0.0 mm 0.00 in0.0 mm
12:55 PM 39.0°F3.9°C 34.3°F1.3°C 83% 8.1 mph WNW13.0 kmh WNW 6.9 mph11.1 kmh 29.62 in1003.0 mb - 0.00 in0.0 mm 0.00 in0.0 mm
01:00 PM 39.0°F3.9°C 34.9°F1.6°C 85% 5.8 mph NW9.3 kmh NW 9.2 mph14.8 kmh 29.62 in1003.0 mb - 0.00 in0.0 mm 0.00 in0.0 mm
01:10 PM 39.0°F3.9°C 34.3°F1.3°C 83% 8.1 mph WNW13.0 kmh WNW 11.5 mph18.5 kmh 29.62 in1003.0 mb - 0.00 in0.0 mm 0.00 in0.0 mm
01:15 PM 39.0°F3.9°C 34.3°F1.3°C 83% 9.2 mph W14.8 kmh W 12.7 mph20.4 kmh 29.62 in1003.0 mb - 0.00 in0.0 mm 0.00 in0.0 mm
01:20 PM 39.0°F3.9°C 34.3°F1.3°C 83% 8.1 mph NW13.0 kmh NW 19.6 mph31.5 kmh 29.62 in1003.0 mb - 0.00 in0.0 mm 0.00 in0.0 mm
01:25 PM 38.7°F3.7°C 33.9°F1.1°C 83% 9.2 mph W14.8 kmh W 10.4 mph16.7 kmh 29.63 in1003.4 mb - 0.00 in0.0 mm 0.00 in0.0 mm
01:30 PM 38.7°F3.7°C 33.9°F1.1°C 83% 8.1 mph NW13.0 kmh NW 11.5 mph18.5 kmh 29.63 in1003.4 mb - 0.00 in0.0 mm 0.00 in0.0 mm
01:35 PM 38.7°F3.7°C 33.9°F1.1°C 83% 10.4 mph NW16.7 kmh NW 12.7 mph20.4 kmh 29.63 in1003.4 mb - 0.00 in0.0 mm 0.00 in0.0 mm
01:40 PM 38.7°F3.7°C 33.9°F1.1°C 83% 9.2 mph W14.8 kmh W 12.7 mph20.4 kmh 29.62 in1003.0 mb - 0.00 in0.0 mm 0.00 in0.0 mm
01:45 PM 38.7°F3.7°C 33.9°F1.1°C 83% 8.1 mph NNW13.0 kmh NNW 11.5 mph18.5 kmh 29.63 in1003.4 mb - 0.00 in0.0 mm 0.00 in0.0 mm
01:50 PM 38.8°F3.8°C 33.5°F0.8°C 81% 6.9 mph W11.1 kmh W 4.6 mph7.4 kmh 29.63 in1003.4 mb - 0.00 in0.0 mm 0.00 in0.0 mm
01:55 PM 39.0°F3.9°C 33.7°F0.9°C 81% 6.9 mph NNW11.1 kmh NNW 11.5 mph18.5 kmh 29.62 in1003.0 mb - 0.00 in0.0 mm 0.00 in0.0 mm
02:00 PM 39.3°F4.1°C 34.0°F1.1°C 81% 5.8 mph NNW9.3 kmh NNW 6.9 mph11.1 kmh 29.62 in1003.0 mb - 0.00 in0.0 mm 0.00 in0.0 mm
02:10 PM 39.2°F4.0°C 33.9°F1.1°C 81% 8.1 mph NW13.0 kmh NW 6.9 mph11.1 kmh 29.62 in1003.0 mb - 0.00 in0.0 mm 0.00 in0.0 mm
02:15 PM 39.2°F4.0°C 33.9°F1.1°C 81% 6.9 mph NW11.1 kmh NW 9.2 mph14.8 kmh 29.62 in1003.0 mb - 0.00 in0.0 mm 0.00 in0.0 mm
02:20 PM 39.0°F3.9°C 33.7°F0.9°C 81% 8.1 mph WNW13.0 kmh WNW 8.1 mph13.0 kmh 29.62 in1003.0 mb - 0.00 in0.0 mm 0.00 in0.0 mm
02:25 PM 38.7°F3.7°C 33.3°F0.7°C 81% 8.1 mph WNW13.0 kmh WNW 11.5 mph18.5 kmh 29.62 in1003.0 mb - 0.00 in0.0 mm 0.00 in0.0 mm
02:30 PM 38.7°F3.7°C 33.3°F0.7°C 81% 8.1 mph NW13.0 kmh NW 9.2 mph14.8 kmh 29.62 in1003.0 mb - 0.00 in0.0 mm 0.00 in0.0 mm
02:35 PM 38.5°F3.6°C 33.2°F0.7°C 81% 8.1 mph WNW13.0 kmh WNW 18.4 mph29.6 kmh 29.63 in1003.4 mb - 0.00 in0.0 mm 0.00 in0.0 mm
02:40 PM 38.5°F3.6°C 32.8°F0.4°C 80% 8.1 mph NW13.0 kmh NW 9.2 mph14.8 kmh 29.63 in1003.4 mb - 0.00 in0.0 mm 0.00 in0.0 mm
02:45 PM 38.1°F3.4°C 32.5°F0.3°C 80% 6.9 mph N11.1 kmh N 8.1 mph13.0 kmh 29.63 in1003.4 mb - 0.00 in0.0 mm 0.00 in0.0 mm
02:50 PM 38.1°F3.4°C 32.5°F0.3°C 80% 6.9 mph WNW11.1 kmh WNW 10.4 mph16.7 kmh 29.63 in1003.4 mb - 0.00 in0.0 mm 0.00 in0.0 mm
02:55 PM 38.1°F3.4°C 32.8°F0.4°C 81% 4.6 mph WNW7.4 kmh WNW 5.8 mph9.3 kmh 29.64 in1003.7 mb - 0.00 in0.0 mm 0.00 in0.0 mm
03:00 PM 37.9°F3.3°C 32.6°F0.3°C 81% 6.9 mph NW11.1 kmh NW 8.1 mph13.0 kmh 29.64 in1003.7 mb - 0.00 in0.0 mm 0.00 in0.0 mm
03:10 PM 37.9°F3.3°C 32.6°F0.3°C 81% 9.2 mph NNW14.8 kmh NNW 8.1 mph13.0 kmh 29.64 in1003.7 mb - 0.00 in0.0 mm 0.00 in0.0 mm
03:15 PM 37.9°F3.3°C 32.6°F0.3°C 81% 8.1 mph W13.0 kmh W 10.4 mph16.7 kmh 29.64 in1003.7 mb - 0.00 in0.0 mm 0.00 in0.0 mm
03:20 PM 37.9°F3.3°C 32.6°F0.3°C 81% 6.9 mph NW11.1 kmh NW 10.4 mph16.7 kmh 29.64 in1003.7 mb - 0.00 in0.0 mm 0.00 in0.0 mm
03:25 PM 37.9°F3.3°C 32.6°F0.3°C 81% 5.8 mph WNW9.3 kmh WNW 4.6 mph7.4 kmh 29.64 in1003.7 mb - 0.00 in0.0 mm 0.00 in0.0 mm
03:30 PM 37.9°F3.3°C 32.6°F0.3°C 81% 6.9 mph NW11.1 kmh NW 13.8 mph22.2 kmh 29.64 in1003.7 mb - 0.00 in0.0 mm 0.00 in0.0 mm
03:35 PM 37.8°F3.2°C 32.5°F0.3°C 81% 8.1 mph W13.0 kmh W 9.2 mph14.8 kmh 29.64 in1003.7 mb - 0.00 in0.0 mm 0.00 in0.0 mm
03:40 PM 37.8°F3.2°C 32.5°F0.3°C 81% 8.1 mph WNW13.0 kmh WNW 8.1 mph13.0 kmh 29.64 in1003.7 mb - 0.00 in0.0 mm 0.00 in0.0 mm
03:45 PM 37.8°F3.2°C 32.5°F0.3°C 81% 5.8 mph NW9.3 kmh NW 6.9 mph11.1 kmh 29.66 in1004.4 mb - 0.00 in0.0 mm 0.00 in0.0 mm
03:50 PM 37.8°F3.2°C 32.5°F0.3°C 81% 6.9 mph W11.1 kmh W 9.2 mph14.8 kmh 29.64 in1003.7 mb - 0.00 in0.0 mm 0.00 in0.0 mm
03:55 PM 37.8°F3.2°C 32.5°F0.3°C 81% 6.9 mph NW11.1 kmh NW 11.5 mph18.5 kmh 29.64 in1003.7 mb - 0.00 in0.0 mm 0.00 in0.0 mm
04:00 PM 37.8°F3.2°C 32.5°F0.3°C 81% 6.9 mph NW11.1 kmh NW 11.5 mph18.5 kmh 29.66 in1004.4 mb - 0.00 in0.0 mm 0.00 in0.0 mm
04:10 PM 37.8°F3.2°C 32.5°F0.3°C 81% 5.8 mph NW9.3 kmh NW 4.6 mph7.4 kmh 29.66 in1004.4 mb - 0.00 in0.0 mm 0.00 in0.0 mm
04:15 PM 37.6°F3.1°C 32.9°F0.5°C 83% 4.6 mph W7.4 kmh W 11.5 mph18.5 kmh 29.66 in1004.4 mb - 0.00 in0.0 mm 0.00 in0.0 mm
04:20 PM 37.6°F3.1°C 32.9°F0.5°C 83% 9.2 mph W14.8 kmh W 10.4 mph16.7 kmh 29.67 in1004.7 mb - 0.00 in0.0 mm 0.00 in0.0 mm
04:25 PM 37.6°F3.1°C 32.3°F0.2°C 81% 9.2 mph NW14.8 kmh NW 10.4 mph16.7 kmh 29.67 in1004.7 mb - 0.00 in0.0 mm 0.00 in0.0 mm
04:30 PM 37.6°F3.1°C 32.3°F0.2°C 81% 8.1 mph NW13.0 kmh NW 8.1 mph13.0 kmh 29.67 in1004.7 mb - 0.00 in0.0 mm 0.00 in0.0 mm
04:35 PM 37.4°F3.0°C 32.1°F0.1°C 81% 10.4 mph WNW16.7 kmh WNW 9.2 mph14.8 kmh 29.68 in1005.1 mb - 0.00 in0.0 mm 0.00 in0.0 mm
04:40 PM 37.2°F2.9°C 31.9°F-0.1°C 81% 6.9 mph W11.1 kmh W 11.5 mph18.5 kmh 29.68 in1005.1 mb - 0.00 in0.0 mm 0.00 in0.0 mm
04:45 PM 37.2°F2.9°C 31.6°F-0.2°C 80% 9.2 mph NNW14.8 kmh NNW 17.3 mph27.8 kmh 29.67 in1004.7 mb - 0.00 in0.0 mm 0.00 in0.0 mm
04:50 PM 37.2°F2.9°C 31.3°F-0.4°C 79% 10.4 mph WNW16.7 kmh WNW 11.5 mph18.5 kmh 29.69 in1005.4 mb - 0.00 in0.0 mm 0.00 in0.0 mm
04:55 PM 37.2°F2.9°C 31.0°F-0.6°C 78% 9.2 mph N14.8 kmh N 8.1 mph13.0 kmh 29.68 in1005.1 mb - 0.00 in0.0 mm 0.00 in0.0 mm
05:00 PM 37.2°F2.9°C 31.0°F-0.6°C 78% 6.9 mph NW11.1 kmh NW 10.4 mph16.7 kmh 29.68 in1005.1 mb - 0.00 in0.0 mm 0.00 in0.0 mm
05:10 PM 37.2°F2.9°C 31.0°F-0.6°C 78% 5.8 mph NW9.3 kmh NW 11.5 mph18.5 kmh 29.68 in1005.1 mb - 0.00 in0.0 mm 0.00 in0.0 mm
05:15 PM 37.0°F2.8°C 30.8°F-0.7°C 78% 5.8 mph WNW9.3 kmh WNW 8.1 mph13.0 kmh 29.69 in1005.4 mb - 0.00 in0.0 mm 0.00 in0.0 mm
05:20 PM 37.0°F2.8°C 31.1°F-0.5°C 79% 5.8 mph WNW9.3 kmh WNW 5.8 mph9.3 kmh 29.69 in1005.4 mb - 0.00 in0.0 mm 0.00 in0.0 mm
05:25 PM 37.0°F2.8°C 31.1°F-0.5°C 79% 5.8 mph WNW9.3 kmh WNW 5.8 mph9.3 kmh 29.69 in1005.4 mb - 0.00 in0.0 mm 0.00 in0.0 mm
05:30 PM 37.0°F2.8°C 31.4°F-0.3°C 80% 4.6 mph W7.4 kmh W 4.6 mph7.4 kmh 29.69 in1005.4 mb - 0.00 in0.0 mm 0.00 in0.0 mm
05:35 PM 36.9°F2.7°C 31.3°F-0.4°C 80% 4.6 mph WNW7.4 kmh WNW 3.5 mph5.6 kmh 29.70 in1005.8 mb - 0.00 in0.0 mm 0.00 in0.0 mm
05:40 PM 36.9°F2.7°C 31.6°F-0.2°C 81% 5.8 mph NW9.3 kmh NW 9.2 mph14.8 kmh 29.70 in1005.8 mb - 0.00 in0.0 mm 0.00 in0.0 mm
05:45 PM 36.9°F2.7°C 31.6°F-0.2°C 81% 5.8 mph WNW9.3 kmh WNW 5.8 mph9.3 kmh 29.70 in1005.8 mb - 0.00 in0.0 mm 0.00 in0.0 mm
05:50 PM 36.9°F2.7°C 31.6°F-0.2°C 81% 5.8 mph WNW9.3 kmh WNW 9.2 mph14.8 kmh 29.70 in1005.8 mb - 0.00 in0.0 mm 0.00 in0.0 mm
05:55 PM 36.7°F2.6°C 31.1°F-0.5°C 80% 9.2 mph W14.8 kmh W 16.1 mph25.9 kmh 29.71 in1006.1 mb - 0.00 in0.0 mm 0.00 in0.0 mm
06:00 PM 36.7°F2.6°C 31.1°F-0.5°C 80% 8.1 mph WNW13.0 kmh WNW 8.1 mph13.0 kmh 29.71 in1006.1 mb - 0.00 in0.0 mm 0.00 in0.0 mm
06:10 PM 36.5°F2.5°C 30.9°F-0.6°C 80% 5.8 mph WNW9.3 kmh WNW 12.7 mph20.4 kmh 29.71 in1006.1 mb - 0.00 in0.0 mm 0.00 in0.0 mm
06:15 PM 36.5°F2.5°C 30.6°F-0.8°C 79% 10.4 mph NW16.7 kmh NW 12.7 mph20.4 kmh 29.71 in1006.1 mb - 0.00 in0.0 mm 0.00 in0.0 mm
06:20 PM 36.5°F2.5°C 30.6°F-0.8°C 79% 6.9 mph NW11.1 kmh NW 13.8 mph22.2 kmh 29.71 in1006.1 mb - 0.00 in0.0 mm 0.00 in0.0 mm
06:25 PM 36.5°F2.5°C 30.6°F-0.8°C 79% 6.9 mph W11.1 kmh W 11.5 mph18.5 kmh 29.71 in1006.1 mb - 0.00 in0.0 mm 0.00 in0.0 mm
06:30 PM 36.5°F2.5°C 30.6°F-0.8°C 79% 8.1 mph NW13.0 kmh NW 8.1 mph13.0 kmh 29.71 in1006.1 mb - 0.00 in0.0 mm 0.00 in0.0 mm
06:35 PM 36.2°F2.3°C 30.3°F-0.9°C 79% 5.8 mph NW9.3 kmh NW 8.1 mph13.0 kmh 29.72 in1006.4 mb - 0.00 in0.0 mm 0.00 in0.0 mm
06:40 PM 36.1°F2.3°C 30.6°F-0.8°C 80% 5.8 mph NW9.3 kmh NW 8.1 mph13.0 kmh 29.72 in1006.4 mb - 0.00 in0.0 mm 0.00 in0.0 mm
06:45 PM 36.1°F2.3°C 30.6°F-0.8°C 80% 5.8 mph NNW9.3 kmh NNW 9.2 mph14.8 kmh 29.72 in1006.4 mb - 0.00 in0.0 mm 0.00 in0.0 mm
06:50 PM 36.1°F2.3°C 30.6°F-0.8°C 80% 4.6 mph NW7.4 kmh NW 4.6 mph7.4 kmh 29.72 in1006.4 mb - 0.00 in0.0 mm 0.00 in0.0 mm
06:55 PM 36.1°F2.3°C 30.6°F-0.8°C 80% 5.8 mph WNW9.3 kmh WNW 11.5 mph18.5 kmh 29.72 in1006.4 mb - 0.00 in0.0 mm 0.00 in0.0 mm
07:00 PM 36.1°F2.3°C 30.9°F-0.6°C 81% 5.8 mph WNW9.3 kmh WNW 6.9 mph11.1 kmh 29.73 in1006.8 mb - 0.00 in0.0 mm 0.00 in0.0 mm
07:10 PM 36.0°F2.2°C 30.7°F-0.7°C 81% 3.5 mph W5.6 kmh W 2.3 mph3.7 kmh 29.72 in1006.4 mb - 0.00 in0.0 mm 0.00 in0.0 mm
07:15 PM 36.0°F2.2°C 30.7°F-0.7°C 81% 4.6 mph W7.4 kmh W 3.5 mph5.6 kmh 29.73 in1006.8 mb - 0.00 in0.0 mm 0.00 in0.0 mm
07:20 PM 36.0°F2.2°C 30.7°F-0.7°C 81% 5.8 mph NNW9.3 kmh NNW 13.8 mph22.2 kmh 29.73 in1006.8 mb - 0.00 in0.0 mm 0.00 in0.0 mm
07:25 PM 36.0°F2.2°C 30.7°F-0.7°C 81% 8.1 mph NW13.0 kmh NW 11.5 mph18.5 kmh 29.72 in1006.4 mb - 0.00 in0.0 mm 0.00 in0.0 mm
07:30 PM 36.0°F2.2°C 30.7°F-0.7°C 81% 6.9 mph WNW11.1 kmh WNW 11.5 mph18.5 kmh 29.73 in1006.8 mb - 0.00 in0.0 mm 0.00 in0.0 mm
07:35 PM 36.0°F2.2°C 30.7°F-0.7°C 81% 6.9 mph NNW11.1 kmh NNW 8.1 mph13.0 kmh 29.73 in1006.8 mb - 0.00 in0.0 mm 0.00 in0.0 mm
07:40 PM 36.0°F2.2°C 30.7°F-0.7°C 81% 6.9 mph WNW11.1 kmh WNW 10.4 mph16.7 kmh 29.74 in1007.1 mb - 0.00 in0.0 mm 0.00 in0.0 mm
07:45 PM 35.8°F2.1°C 30.5°F-0.8°C 81% 9.2 mph W14.8 kmh W 8.1 mph13.0 kmh 29.74 in1007.1 mb - 0.00 in0.0 mm 0.00 in0.0 mm
07:50 PM 35.4°F1.9°C 30.2°F-1.0°C 81% 9.2 mph WNW14.8 kmh WNW 13.8 mph22.2 kmh 29.74 in1007.1 mb - 0.00 in0.0 mm 0.00 in0.0 mm
07:55 PM 35.1°F1.7°C 29.8°F-1.2°C 81% 9.2 mph WNW14.8 kmh WNW 6.9 mph11.1 kmh 29.74 in1007.1 mb - 0.00 in0.0 mm 0.00 in0.0 mm
08:00 PM 35.1°F1.7°C 29.8°F-1.2°C 81% 6.9 mph W11.1 kmh W 9.2 mph14.8 kmh 29.75 in1007.5 mb - 0.00 in0.0 mm 0.00 in0.0 mm
08:10 PM 34.9°F1.6°C 29.6°F-1.3°C 81% 9.2 mph W14.8 kmh W 12.7 mph20.4 kmh 29.75 in1007.5 mb - 0.00 in0.0 mm 0.00 in0.0 mm
08:15 PM 34.7°F1.5°C 29.5°F-1.4°C 81% 10.4 mph NW16.7 kmh NW 10.4 mph16.7 kmh 29.75 in1007.5 mb - 0.00 in0.0 mm 0.00 in0.0 mm
08:20 PM 34.7°F1.5°C 29.5°F-1.4°C 81% 9.2 mph NNW14.8 kmh NNW 11.5 mph18.5 kmh 29.75 in1007.5 mb - 0.00 in0.0 mm 0.00 in0.0 mm
08:25 PM 34.7°F1.5°C 29.2°F-1.6°C 80% 10.4 mph W16.7 kmh W 15.0 mph24.1 kmh 29.75 in1007.5 mb - 0.00 in0.0 mm 0.00 in0.0 mm
08:30 PM 34.7°F1.5°C 28.5°F-1.9°C 78% 10.4 mph WNW16.7 kmh WNW 12.7 mph20.4 kmh 29.75 in1007.5 mb - 0.00 in0.0 mm 0.00 in0.0 mm
08:35 PM 34.5°F1.4°C 28.7°F-1.8°C 79% 10.4 mph NW16.7 kmh NW 12.7 mph20.4 kmh 29.76 in1007.8 mb - 0.00 in0.0 mm 0.00 in0.0 mm
08:40 PM 34.2°F1.2°C 28.7°F-1.8°C 80% 9.2 mph WNW14.8 kmh WNW 15.0 mph24.1 kmh 29.76 in1007.8 mb - 0.00 in0.0 mm 0.00 in0.0 mm
08:45 PM 34.2°F1.2°C 28.6°F-1.9°C 80% 8.1 mph NW13.0 kmh NW 10.4 mph16.7 kmh 29.77 in1008.1 mb - 0.00 in0.0 mm 0.00 in0.0 mm
08:50 PM 34.2°F1.2°C 28.6°F-1.9°C 80% 6.9 mph WNW11.1 kmh WNW 8.1 mph13.0 kmh 29.77 in1008.1 mb - 0.00 in0.0 mm 0.00 in0.0 mm
08:55 PM 34.2°F1.2°C 28.6°F-1.9°C 80% 9.2 mph NW14.8 kmh NW 9.2 mph14.8 kmh 29.77 in1008.1 mb - 0.00 in0.0 mm 0.00 in0.0 mm
09:00 PM 34.0°F1.1°C 28.5°F-1.9°C 80% 9.2 mph NW14.8 kmh NW 13.8 mph22.2 kmh 29.77 in1008.1 mb - 0.00 in0.0 mm 0.00 in0.0 mm
09:10 PM 33.8°F1.0°C 28.3°F-2.1°C 80% 5.8 mph WNW9.3 kmh WNW 11.5 mph18.5 kmh 29.77 in1008.1 mb - 0.00 in0.0 mm 0.00 in0.0 mm
09:15 PM 33.8°F1.0°C 28.3°F-2.1°C 80% 8.1 mph W13.0 kmh W 9.2 mph14.8 kmh 29.77 in1008.1 mb - 0.00 in0.0 mm 0.00 in0.0 mm
09:20 PM 33.4°F0.8°C 27.9°F-2.3°C 80% 6.9 mph NW11.1 kmh NW 12.7 mph20.4 kmh 29.78 in1008.5 mb - 0.00 in0.0 mm 0.00 in0.0 mm
09:25 PM 33.4°F0.8°C 28.2°F-2.1°C 81% 9.2 mph WNW14.8 kmh WNW 10.4 mph16.7 kmh 29.78 in1008.5 mb - 0.00 in0.0 mm 0.00 in0.0 mm
09:30 PM 33.4°F0.8°C 28.2°F-2.1°C 81% 5.8 mph WNW9.3 kmh WNW 4.6 mph7.4 kmh 29.78 in1008.5 mb - 0.00 in0.0 mm 0.00 in0.0 mm
09:35 PM 33.4°F0.8°C 28.2°F-2.1°C 81% 5.8 mph E9.3 kmh E 6.9 mph11.1 kmh 29.78 in1008.5 mb - 0.00 in0.0 mm 0.00 in0.0 mm
09:40 PM 33.4°F0.8°C 28.2°F-2.1°C 81% 4.6 mph WSW7.4 kmh WSW 6.9 mph11.1 kmh 29.78 in1008.5 mb - 0.00 in0.0 mm 0.00 in0.0 mm
09:45 PM 33.4°F0.8°C 28.2°F-2.1°C 81% 4.6 mph WNW7.4 kmh WNW 4.6 mph7.4 kmh 29.78 in1008.5 mb - 0.00 in0.0 mm 0.00 in0.0 mm
09:50 PM 33.3°F0.7°C 28.1°F-2.2°C 81% 4.6 mph WNW7.4 kmh WNW 5.8 mph9.3 kmh 29.78 in1008.5 mb - 0.00 in0.0 mm 0.00 in0.0 mm
09:55 PM 33.3°F0.7°C 28.1°F-2.2°C 81% 6.9 mph NW11.1 kmh NW 6.9 mph11.1 kmh 29.79 in1008.8 mb - 0.00 in0.0 mm 0.00 in0.0 mm
10:00 PM 33.3°F0.7°C 28.1°F-2.2°C 81% 6.9 mph WNW11.1 kmh WNW 11.5 mph18.5 kmh 29.79 in1008.8 mb - 0.00 in0.0 mm 0.00 in0.0 mm
10:10 PM 33.3°F0.7°C 28.1°F-2.2°C 81% 4.6 mph W7.4 kmh W 3.5 mph5.6 kmh 29.79 in1008.8 mb - 0.00 in0.0 mm 0.00 in0.0 mm
10:15 PM 33.3°F0.7°C 28.1°F-2.2°C 81% 4.6 mph W7.4 kmh W 8.1 mph13.0 kmh 29.79 in1008.8 mb - 0.00 in0.0 mm 0.00 in0.0 mm
10:20 PM 33.3°F0.7°C 28.4°F-2.0°C 82% 4.6 mph WSW7.4 kmh WSW 5.8 mph9.3 kmh 29.79 in1008.8 mb - 0.00 in0.0 mm 0.00 in0.0 mm
10:25 PM 33.3°F0.7°C 28.7°F-1.8°C 83% 4.6 mph W7.4 kmh W 6.9 mph11.1 kmh 29.80 in1009.1 mb - 0.00 in0.0 mm 0.00 in0.0 mm
10:30 PM 33.3°F0.7°C 28.7°F-1.8°C 83% 3.5 mph W5.6 kmh W 3.5 mph5.6 kmh 29.80 in1009.1 mb - 0.00 in0.0 mm 0.00 in0.0 mm
10:35 PM 33.1°F0.6°C 28.5°F-1.9°C 83% 6.9 mph NW11.1 kmh NW 10.4 mph16.7 kmh 29.80 in1009.1 mb - 0.00 in0.0 mm 0.00 in0.0 mm
10:40 PM 32.9°F0.5°C 28.3°F-2.1°C 83% 8.1 mph NW13.0 kmh NW 8.1 mph13.0 kmh 29.80 in1009.1 mb - 0.00 in0.0 mm 0.00 in0.0 mm
10:45 PM 32.5°F0.3°C 28.0°F-2.2°C 83% 9.2 mph W14.8 kmh W 12.7 mph20.4 kmh 29.80 in1009.1 mb - 0.00 in0.0 mm 0.00 in0.0 mm
10:50 PM 32.5°F0.3°C 28.0°F-2.2°C 83% 6.9 mph NW11.1 kmh NW 8.1 mph13.0 kmh 29.80 in1009.1 mb - 0.00 in0.0 mm 0.00 in0.0 mm
10:55 PM 32.5°F0.3°C 28.0°F-2.2°C 83% 8.1 mph WNW13.0 kmh WNW 11.5 mph18.5 kmh 29.81 in1009.5 mb - 0.00 in0.0 mm 0.00 in0.0 mm
11:00 PM 32.5°F0.3°C 28.0°F-2.2°C 83% 6.9 mph WNW11.1 kmh WNW 9.2 mph14.8 kmh 29.81 in1009.5 mb - 0.00 in0.0 mm 0.00 in0.0 mm
11:10 PM 32.5°F0.3°C 28.0°F-2.2°C 83% 8.1 mph WNW13.0 kmh WNW 10.4 mph16.7 kmh 29.80 in1009.1 mb - 0.00 in0.0 mm 0.00 in0.0 mm
11:15 PM 32.5°F0.3°C 28.0°F-2.2°C 83% 5.8 mph WNW9.3 kmh WNW 9.2 mph14.8 kmh 29.80 in1009.1 mb - 0.00 in0.0 mm 0.00 in0.0 mm
11:20 PM 32.5°F0.3°C 28.0°F-2.2°C 83% 6.9 mph NW11.1 kmh NW 10.4 mph16.7 kmh 29.81 in1009.5 mb - 0.00 in0.0 mm 0.00 in0.0 mm
11:25 PM 32.5°F0.3°C 28.0°F-2.2°C 83% 6.9 mph W11.1 kmh W 9.2 mph14.8 kmh 29.81 in1009.5 mb - 0.00 in0.0 mm 0.00 in0.0 mm
11:30 PM 32.5°F0.3°C 28.0°F-2.2°C 83% 8.1 mph WSW13.0 kmh WSW 11.5 mph18.5 kmh 29.82 in1009.8 mb - 0.00 in0.0 mm 0.00 in0.0 mm
11:35 PM 32.4°F0.2°C 27.8°F-2.3°C 83% 6.9 mph W11.1 kmh W 10.4 mph16.7 kmh 29.82 in1009.8 mb - 0.00 in0.0 mm 0.00 in0.0 mm
11:40 PM 32.4°F0.2°C 27.8°F-2.3°C 83% 6.9 mph NW11.1 kmh NW 5.8 mph9.3 kmh 29.82 in1009.8 mb - 0.00 in0.0 mm 0.00 in0.0 mm
11:45 PM 32.4°F0.2°C 27.8°F-2.3°C 83% 5.8 mph WNW9.3 kmh WNW 10.4 mph16.7 kmh 29.82 in1009.8 mb - 0.00 in0.0 mm 0.00 in0.0 mm
11:50 PM 32.2°F0.1°C 27.6°F-2.4°C 83% 5.8 mph WNW9.3 kmh WNW 6.9 mph11.1 kmh 29.82 in1009.8 mb - 0.00 in0.0 mm 0.00 in0.0 mm
11:55 PM 32.2°F0.1°C 27.6°F-2.4°C 83% 6.9 mph W11.1 kmh W 8.1 mph13.0 kmh 29.82 in1009.8 mb - 0.00 in0.0 mm 0.00 in0.0 mm